Rangeley, ME (04970)

11:44 AM EST on December 27, 2014 (GMT -0500)
Center Hill Road | Change Station
CLOSE
Current Station
Personal Weather Station
Location: Weld, ME
Elevation: 1038 ft
Nearby Weather Stations

Elev 1038 ft 44.71 °N, 70.41 °W | Updated 9 seconds ago

Overcast
Overcast
40.5 °F
Feels Like 40 °F
N
2.0
Wind Variable Wind from WSW
Gusts 10.0 mph

Today
High -- | Low -- °F
--% Chance of Precip.
Yesterday
High -- | Low -- °F
Precip. -- in
7:20 AM 4:07 PM
Waxing Crescent, 38% visible
Pressure 30.10 in
Visibility 10.0 miles
Clouds Mostly Cloudy 2800 ft
Overcast 3400 ft
Windchill 40 °F
Dew Point 32 °F
Humidity 70%
Rainfall 0.00 in
Snow Depth Not available.
UV 1 out of 12
Pollen .10 out of 12
Air Quality Not available.
Flu Activity Not available.
SPECI KBML 271635Z AUTO VRB05KT 10SM BKN028 OVC034 04/M02 A3010 RMK AO2 T00441022

More Conditions Fewer Conditions

Pressure 30.10 in
Visibility 10.0 miles
Clouds Mostly Cloudy 2800 ft
Overcast 3400 ft
Windchill 40 °F
Dew Point 32 °F
Humidity 70%
Rainfall 0.00 in
Snow Depth Not available.
UV 1 out of 12
Pollen .10 out of 12
Air Quality Not available.
Flu Activity Not available.
SPECI KBML 271635Z AUTO VRB05KT 10SM BKN028 OVC034 04/M02 A3010 RMK AO2 T00441022

More Conditions Fewer Conditions

10-Day Weather Forecast

Almanac

Astronomy

Dec. 27, 2014 Rise Set
Actual Time
Civil Twilight
Nautical Twilight
Astronomical Twilight
Moon
Length of Visible Light
Length of Day
Tomorrow will be .
, % of the Moon is Illuminated

Today's Extremes

State Highs State Lows

Community

WunderPhotos

Upload Photos

1,780,958 photos uploaded!

WunderBlogs® & News

Nearby

Air Quality

  Air Quality AQ Index Pollutant
Not available.

Snow Depth

Station Depth Elevation

Earthquake Activity

City Distance Mag. Time & Date
Minimum magnitude displayed is 2.5.

Coastal Water Temperatures

Place Temperature

Nearby Weather Stations